sensor_id;sensor_type;location;lat;lon;timestamp;noise_LAeq;noise_LA_min;noise_LA_max;noise_LA01;noise_LA95
71016;Laerm;60940;52.046;5.340;2023-07-28T00:00:00;41.58;40.47;42.94;;
71016;Laerm;60940;52.046;5.340;2023-07-28T00:00:10;41.58;40.59;42.64;;
71016;Laerm;60940;52.046;5.340;2023-07-28T00:00:21;41.75;40.76;42.90;;
71016;Laerm;60940;52.046;5.340;2023-07-28T00:00:31;41.62;40.60;42.68;;
71016;Laerm;60940;52.046;5.340;2023-07-28T00:00:42;41.56;40.64;42.58;;
71016;Laerm;60940;52.046;5.340;2023-07-28T00:00:52;41.55;40.52;42.70;;
71016;Laerm;60940;52.046;5.340;2023-07-28T00:01:02;41.53;40.11;42.52;;
71016;Laerm;60940;52.046;5.340;2023-07-28T00:01:13;41.50;40.54;42.51;;
71016;Laerm;60940;52.046;5.340;2023-07-28T00:01:23;41.53;40.61;42.81;;
71016;Laerm;60940;52.046;5.340;2023-07-28T00:01:33;41.57;40.19;42.76;;
71016;Laerm;60940;52.046;5.340;2023-07-28T00:01:43;41.66;40.42;42.55;;
71016;Laerm;60940;52.046;5.340;2023-07-28T00:01:53;41.65;40.35;42.58;;
71016;Laerm;60940;52.046;5.340;2023-07-28T00:02:04;41.68;40.72;42.82;;
71016;Laerm;60940;52.046;5.340;2023-07-28T00:02:14;41.72;40.74;42.72;;
71016;Laerm;60940;52.046;5.340;2023-07-28T00:02:24;41.72;40.47;42.79;;
71016;Laerm;60940;52.046;5.340;2023-07-28T00:02:34;41.74;40.59;42.61;;
71016;Laerm;60940;52.046;5.340;2023-07-28T00:02:45;41.56;40.24;42.56;;
71016;Laerm;60940;52.046;5.340;2023-07-28T00:02:55;41.47;40.49;42.71;;
71016;Laerm;60940;52.046;5.340;2023-07-28T00:03:05;41.55;40.03;42.52;;
71016;Laerm;60940;52.046;5.340;2023-07-28T00:03:15;41.52;40.58;42.72;;
71016;Laerm;60940;52.046;5.340;2023-07-28T00:03:25;41.52;40.60;42.52;;
71016;Laerm;60940;52.046;5.340;2023-07-28T00:03:36;41.46;40.40;42.53;;
71016;Laerm;60940;52.046;5.340;2023-07-28T00:03:46;41.54;40.41;42.67;;
71016;Laerm;60940;52.046;5.340;2023-07-28T00:03:56;41.59;40.15;42.86;;
71016;Laerm;60940;52.046;5.340;2023-07-28T00:04:07;41.57;40.60;42.53;;
71016;Laerm;60940;52.046;5.340;2023-07-28T00:04:19;41.64;40.71;42.72;;
71016;Laerm;60940;52.046;5.340;2023-07-28T00:04:29;41.66;40.38;42.59;;
71016;Laerm;60940;52.046;5.340;2023-07-28T00:04:40;41.66;40.39;43.28;;
71016;Laerm;60940;52.046;5.340;2023-07-28T00:04:50;41.68;40.51;42.59;;
71016;Laerm;60940;52.046;5.340;2023-07-28T00:05:00;41.99;40.68;43.06;;
71016;Laerm;60940;52.046;5.340;2023-07-28T00:05:10;41.98;40.61;43.02;;
71016;Laerm;60940;52.046;5.340;2023-07-28T00:05:20;41.77;40.61;42.81;;
71016;Laerm;60940;52.046;5.340;2023-07-28T00:05:31;41.70;40.28;42.84;;
71016;Laerm;60940;52.046;5.340;2023-07-28T00:05:41;41.65;40.43;42.63;;
71016;Laerm;60940;52.046;5.340;2023-07-28T00:05:51;41.58;40.29;42.46;;
71016;Laerm;60940;52.046;5.340;2023-07-28T00:06:01;41.57;40.35;42.44;;
71016;Laerm;60940;52.046;5.340;2023-07-28T00:06:11;41.67;40.11;42.50;;
71016;Laerm;60940;52.046;5.340;2023-07-28T00:06:22;41.59;40.48;42.54;;
71016;Laerm;60940;52.046;5.340;2023-07-28T00:06:32;41.60;40.36;42.50;;
71016;Laerm;60940;52.046;5.340;2023-07-28T00:06:42;41.58;40.56;42.59;;
71016;Laerm;60940;52.046;5.340;2023-07-28T00:06:52;41.58;40.24;42.48;;
71016;Laerm;60940;52.046;5.340;2023-07-28T00:07:03;41.58;40.34;42.81;;
71016;Laerm;60940;52.046;5.340;2023-07-28T00:07:13;41.59;40.39;42.78;;
71016;Laerm;60940;52.046;5.340;2023-07-28T00:07:23;41.58;40.51;42.64;;
71016;Laerm;60940;52.046;5.340;2023-07-28T00:07:33;41.70;40.62;42.77;;
71016;Laerm;60940;52.046;5.340;2023-07-28T00:07:46;41.63;40.44;42.56;;
71016;Laerm;60940;52.046;5.340;2023-07-28T00:07:56;41.63;40.45;42.73;;
71016;Laerm;60940;52.046;5.340;2023-07-28T00:08:06;41.60;40.59;42.66;;
71016;Laerm;60940;52.046;5.340;2023-07-28T00:08:16;41.71;40.59;42.91;;
71016;Laerm;60940;52.046;5.340;2023-07-28T00:08:26;41.86;40.69;42.92;;
71016;Laerm;60940;52.046;5.340;2023-07-28T00:08:37;42.20;41.04;43.20;;
71016;Laerm;60940;52.046;5.340;2023-07-28T00:08:47;41.71;40.60;42.68;;
71016;Laerm;60940;52.046;5.340;2023-07-28T00:08:58;41.67;40.66;42.69;;
71016;Laerm;60940;52.046;5.340;2023-07-28T00:09:08;41.73;40.52;42.69;;
71016;Laerm;60940;52.046;5.340;2023-07-28T00:09:18;41.73;40.41;43.12;;
71016;Laerm;60940;52.046;5.340;2023-07-28T00:09:28;41.58;40.44;42.62;;
71016;Laerm;60940;52.046;5.340;2023-07-28T00:09:38;41.54;40.52;42.68;;
71016;Laerm;60940;52.046;5.340;2023-07-28T00:09:49;41.59;40.57;42.55;;
71016;Laerm;60940;52.046;5.340;2023-07-28T00:09:59;41.66;40.50;43.05;;
71016;Laerm;60940;52.046;5.340;2023-07-28T00:10:10;41.64;40.23;42.97;;
71016;Laerm;60940;52.046;5.340;2023-07-28T00:10:20;41.60;40.62;42.61;;
71016;Laerm;60940;52.046;5.340;2023-07-28T00:10:31;41.58;40.28;42.68;;
71016;Laerm;60940;52.046;5.340;2023-07-28T00:10:41;41.65;40.57;42.68;;
71016;Laerm;60940;52.046;5.340;2023-07-28T00:10:52;41.75;40.45;42.82;;
71016;Laerm;60940;52.046;5.340;2023-07-28T00:11:02;41.74;40.39;42.74;;
71016;Laerm;60940;52.046;5.340;2023-07-28T00:11:13;41.75;40.67;42.93;;
71016;Laerm;60940;52.046;5.340;2023-07-28T00:11:23;41.72;40.65;42.91;;
71016;Laerm;60940;52.046;5.340;2023-07-28T00:11:34;41.71;40.42;42.86;;
71016;Laerm;60940;52.046;5.340;2023-07-28T00:11:44;41.59;40.60;42.57;;
71016;Laerm;60940;52.046;5.340;2023-07-28T00:11:55;41.56;40.61;42.48;;
71016;Laerm;60940;52.046;5.340;2023-07-28T00:12:06;41.59;40.39;42.67;;
71016;Laerm;60940;52.046;5.340;2023-07-28T00:12:16;41.62;40.53;43.08;;
71016;Laerm;60940;52.046;5.340;2023-07-28T00:12:26;41.69;40.50;42.86;;
71016;Laerm;60940;52.046;5.340;2023-07-28T00:12:36;41.65;40.76;43.08;;
71016;Laerm;60940;52.046;5.340;2023-07-28T00:12:46;41.62;40.48;42.41;;
71016;Laerm;60940;52.046;5.340;2023-07-28T00:12:57;41.71;40.53;42.71;;
71016;Laerm;60940;52.046;5.340;2023-07-28T00:13:07;41.69;40.64;43.15;;
71016;Laerm;60940;52.046;5.340;2023-07-28T00:13:17;41.71;40.67;42.72;;
71016;Laerm;60940;52.046;5.340;2023-07-28T00:13:28;41.70;40.49;42.76;;
71016;Laerm;60940;52.046;5.340;2023-07-28T00:13:38;41.67;40.71;42.68;;
71016;Laerm;60940;52.046;5.340;2023-07-28T00:13:48;41.72;40.69;42.86;;
71016;Laerm;60940;52.046;5.340;2023-07-28T00:13:58;41.72;40.38;42.81;;
71016;Laerm;60940;52.046;5.340;2023-07-28T00:14:08;41.79;40.77;42.68;;
71016;Laerm;60940;52.046;5.340;2023-07-28T00:14:19;41.58;40.31;42.54;;
71016;Laerm;60940;52.046;5.340;2023-07-28T00:14:29;41.55;40.19;42.48;;
71016;Laerm;60940;52.046;5.340;2023-07-28T00:14:39;41.56;40.39;42.60;;
71016;Laerm;60940;52.046;5.340;2023-07-28T00:14:49;41.58;39.98;42.57;;
71016;Laerm;60940;52.046;5.340;2023-07-28T00:14:59;41.64;40.21;42.68;;
71016;Laerm;60940;52.046;5.340;2023-07-28T00:15:10;41.67;40.44;42.77;;
71016;Laerm;60940;52.046;5.340;2023-07-28T00:15:20;41.60;40.39;42.67;;
71016;Laerm;60940;52.046;5.340;2023-07-28T00:15:30;41.53;40.64;42.44;;
71016;Laerm;60940;52.046;5.340;2023-07-28T00:15:40;41.60;40.51;42.68;;
71016;Laerm;60940;52.046;5.340;2023-07-28T00:15:50;41.64;40.58;42.58;;
71016;Laerm;60940;52.046;5.340;2023-07-28T00:16:01;41.64;40.43;42.98;;
71016;Laerm;60940;52.046;5.340;2023-07-28T00:16:12;41.58;40.56;42.62;;
71016;Laerm;60940;52.046;5.340;2023-07-28T00:16:22;41.70;40.62;43.14;;
71016;Laerm;60940;52.046;5.340;2023-07-28T00:16:33;41.67;40.70;42.69;;
71016;Laerm;60940;52.046;5.340;2023-07-28T00:16:43;41.71;40.61;42.82;;
71016;Laerm;60940;52.046;5.340;2023-07-28T00:16:53;41.72;40.76;42.90;;
71016;Laerm;60940;52.046;5.340;2023-07-28T00:17:04;41.63;40.60;42.78;;
71016;Laerm;60940;52.046;5.340;2023-07-28T00:17:14;41.60;40.41;42.47;;
71016;Laerm;60940;52.046;5.340;2023-07-28T00:17:24;41.51;40.56;42.30;;
71016;Laerm;60940;52.046;5.340;2023-07-28T00:17:34;41.51;40.34;42.60;;
71016;Laerm;60940;52.046;5.340;2023-07-28T00:17:44;41.58;40.31;42.66;;
71016;Laerm;60940;52.046;5.340;2023-07-28T00:17:55;41.68;40.58;42.77;;
71016;Laerm;60940;52.046;5.340;2023-07-28T00:18:06;41.74;40.37;43.00;;
71016;Laerm;60940;52.046;5.340;2023-07-28T00:18:16;41.70;40.58;42.78;;
71016;Laerm;60940;52.046;5.340;2023-07-28T00:18:28;41.72;40.59;42.91;;
71016;Laerm;60940;52.046;5.340;2023-07-28T00:18:38;41.73;40.67;42.64;;
71016;Laerm;60940;52.046;5.340;2023-07-28T00:18:48;41.63;40.52;42.73;;
71016;Laerm;60940;52.046;5.340;2023-07-28T00:18:59;41.65;40.53;42.99;;
71016;Laerm;60940;52.046;5.340;2023-07-28T00:19:09;41.63;40.38;42.62;;
71016;Laerm;60940;52.046;5.340;2023-07-28T00:19:20;41.63;40.67;42.65;;
71016;Laerm;60940;52.046;5.340;2023-07-28T00:19:31;41.64;40.52;42.79;;
71016;Laerm;60940;52.046;5.340;2023-07-28T00:19:41;41.69;40.71;42.64;;
71016;Laerm;60940;52.046;5.340;2023-07-28T00:19:51;41.67;40.70;42.60;;
71016;Laerm;60940;52.046;5.340;2023-07-28T00:20:02;41.65;40.49;42.56;;
71016;Laerm;60940;52.046;5.340;2023-07-28T00:20:12;41.75;40.69;42.69;;
71016;Laerm;60940;52.046;5.340;2023-07-28T00:20:22;41.53;40.54;42.42;;
71016;Laerm;60940;52.046;5.340;2023-07-28T00:20:33;41.55;40.31;42.61;;
71016;Laerm;60940;52.046;5.340;2023-07-28T00:20:43;41.67;40.52;43.00;;
71016;Laerm;60940;52.046;5.340;2023-07-28T00:20:53;41.61;40.58;42.57;;
71016;Laerm;60940;52.046;5.340;2023-07-28T00:21:04;41.64;40.42;42.62;;
71016;Laerm;60940;52.046;5.340;2023-07-28T00:21:14;41.55;40.60;42.41;;
71016;Laerm;60940;52.046;5.340;2023-07-28T00:21:25;41.58;40.61;42.45;;
71016;Laerm;60940;52.046;5.340;2023-07-28T00:21:36;41.71;40.51;42.78;;
71016;Laerm;60940;52.046;5.340;2023-07-28T00:21:49;41.77;40.65;42.83;;
71016;Laerm;60940;52.046;5.340;2023-07-28T00:21:59;41.74;40.75;42.63;;
71016;Laerm;60940;52.046;5.340;2023-07-28T00:22:09;41.72;40.57;42.87;;
71016;Laerm;60940;52.046;5.340;2023-07-28T00:22:20;41.70;40.39;42.72;;
71016;Laerm;60940;52.046;5.340;2023-07-28T00:22:30;41.68;40.38;42.91;;
71016;Laerm;60940;52.046;5.340;2023-07-28T00:22:40;41.70;40.71;42.74;;
71016;Laerm;60940;52.046;5.340;2023-07-28T00:22:50;41.93;40.68;42.96;;
71016;Laerm;60940;52.046;5.340;2023-07-28T00:23:00;41.77;40.61;43.01;;
71016;Laerm;60940;52.046;5.340;2023-07-28T00:23:11;41.73;40.78;42.61;;
71016;Laerm;60940;52.046;5.340;2023-07-28T00:23:21;41.75;40.70;42.94;;
71016;Laerm;60940;52.046;5.340;2023-07-28T00:23:31;41.76;40.37;42.78;;
71016;Laerm;60940;52.046;5.340;2023-07-28T00:23:41;41.79;40.69;42.90;;
71016;Laerm;60940;52.046;5.340;2023-07-28T00:23:51;41.80;40.78;42.69;;
71016;Laerm;60940;52.046;5.340;2023-07-28T00:24:02;41.78;40.72;42.74;;
71016;Laerm;60940;52.046;5.340;2023-07-28T00:24:12;41.72;40.45;42.76;;
71016;Laerm;60940;52.046;5.340;2023-07-28T00:24:22;41.65;40.46;42.67;;
71016;Laerm;60940;52.046;5.340;2023-07-28T00:24:33;41.70;40.53;42.81;;
71016;Laerm;60940;52.046;5.340;2023-07-28T00:24:43;41.73;40.47;42.69;;
71016;Laerm;60940;52.046;5.340;2023-07-28T00:24:54;41.68;40.46;42.81;;
71016;Laerm;60940;52.046;5.340;2023-07-28T00:25:04;41.78;40.76;43.44;;
71016;Laerm;60940;52.046;5.340;2023-07-28T00:25:14;41.84;40.52;42.94;;
71016;Laerm;60940;52.046;5.340;2023-07-28T00:25:24;41.76;40.36;42.93;;
71016;Laerm;60940;52.046;5.340;2023-07-28T00:25:35;41.86;40.66;42.99;;
71016;Laerm;60940;52.046;5.340;2023-07-28T00:25:45;41.86;40.73;42.87;;
71016;Laerm;60940;52.046;5.340;2023-07-28T00:25:55;41.90;40.77;42.95;;
71016;Laerm;60940;52.046;5.340;2023-07-28T00:26:06;41.86;40.77;43.03;;
71016;Laerm;60940;52.046;5.340;2023-07-28T00:26:16;41.78;40.64;42.87;;
71016;Laerm;60940;52.046;5.340;2023-07-28T00:26:26;41.79;40.49;42.76;;
71016;Laerm;60940;52.046;5.340;2023-07-28T00:26:36;41.78;40.38;42.75;;
71016;Laerm;60940;52.046;5.340;2023-07-28T00:26:47;41.74;40.65;42.67;;
71016;Laerm;60940;52.046;5.340;2023-07-28T00:26:57;41.81;40.77;42.72;;
71016;Laerm;60940;52.046;5.340;2023-07-28T00:27:07;41.82;40.53;43.00;;
71016;Laerm;60940;52.046;5.340;2023-07-28T00:27:17;41.89;40.58;43.19;;
71016;Laerm;60940;52.046;5.340;2023-07-28T00:27:28;41.91;40.81;42.98;;
71016;Laerm;60940;52.046;5.340;2023-07-28T00:27:38;41.93;40.79;42.83;;
71016;Laerm;60940;52.046;5.340;2023-07-28T00:27:48;41.90;40.88;42.96;;
71016;Laerm;60940;52.046;5.340;2023-07-28T00:27:59;41.96;40.87;43.27;;
71016;Laerm;60940;52.046;5.340;2023-07-28T00:28:09;41.92;40.78;43.13;;
71016;Laerm;60940;52.046;5.340;2023-07-28T00:28:19;41.89;40.51;43.31;;
71016;Laerm;60940;52.046;5.340;2023-07-28T00:28:29;41.85;40.63;43.10;;
71016;Laerm;60940;52.046;5.340;2023-07-28T00:28:39;41.78;40.62;42.94;;
71016;Laerm;60940;52.046;5.340;2023-07-28T00:28:50;41.87;40.74;43.03;;
71016;Laerm;60940;52.046;5.340;2023-07-28T00:29:00;41.80;40.43;43.01;;
71016;Laerm;60940;52.046;5.340;2023-07-28T00:29:10;41.75;40.67;42.76;;
71016;Laerm;60940;52.046;5.340;2023-07-28T00:29:20;41.73;40.65;42.99;;
71016;Laerm;60940;52.046;5.340;2023-07-28T00:29:31;41.73;40.60;42.98;;
71016;Laerm;60940;52.046;5.340;2023-07-28T00:29:41;41.72;40.76;42.95;;
71016;Laerm;60940;52.046;5.340;2023-07-28T00:29:51;41.64;40.19;42.79;;
71016;Laerm;60940;52.046;5.340;2023-07-28T00:30:01;41.65;40.33;42.61;;
71016;Laerm;60940;52.046;5.340;2023-07-28T00:30:12;41.73;40.33;42.76;;
71016;Laerm;60940;52.046;5.340;2023-07-28T00:30:22;41.70;40.59;43.46;;
71016;Laerm;60940;52.046;5.340;2023-07-28T00:30:33;41.75;40.70;42.57;;
71016;Laerm;60940;52.046;5.340;2023-07-28T00:30:43;41.73;40.36;42.79;;
71016;Laerm;60940;52.046;5.340;2023-07-28T00:30:53;41.63;40.51;43.10;;
71016;Laerm;60940;52.046;5.340;2023-07-28T00:31:03;41.59;40.64;42.84;;
71016;Laerm;60940;52.046;5.340;2023-07-28T00:31:14;41.55;40.46;42.55;;
71016;Laerm;60940;52.046;5.340;2023-07-28T00:31:24;41.61;40.21;42.53;;
71016;Laerm;60940;52.046;5.340;2023-07-28T00:31:34;41.66;40.06;42.75;;
71016;Laerm;60940;52.046;5.340;2023-07-28T00:31:44;41.71;40.78;42.74;;
71016;Laerm;60940;52.046;5.340;2023-07-28T00:31:54;41.80;40.66;42.79;;
71016;Laerm;60940;52.046;5.340;2023-07-28T00:32:05;41.72;40.76;42.68;;
71016;Laerm;60940;52.046;5.340;2023-07-28T00:32:15;41.65;40.59;42.78;;
71016;Laerm;60940;52.046;5.340;2023-07-28T00:32:25;41.61;40.29;42.57;;
71016;Laerm;60940;52.046;5.340;2023-07-28T00:32:35;41.62;40.52;42.66;;
71016;Laerm;60940;52.046;5.340;2023-07-28T00:32:46;41.60;40.54;42.70;;
71016;Laerm;60940;52.046;5.340;2023-07-28T00:32:56;41.69;40.64;42.62;;
71016;Laerm;60940;52.046;5.340;2023-07-28T00:33:06;41.57;40.25;42.48;;
71016;Laerm;60940;52.046;5.340;2023-07-28T00:33:16;41.55;40.32;42.62;;
71016;Laerm;60940;52.046;5.340;2023-07-28T00:33:27;41.52;40.28;42.48;;
71016;Laerm;60940;52.046;5.340;2023-07-28T00:33:37;41.52;40.11;42.71;;
71016;Laerm;60940;52.046;5.340;2023-07-28T00:33:47;41.53;40.49;42.55;;
71016;Laerm;60940;52.046;5.340;2023-07-28T00:33:58;41.54;40.27;42.41;;
71016;Laerm;60940;52.046;5.340;2023-07-28T00:34:08;41.53;40.62;42.66;;
71016;Laerm;60940;52.046;5.340;2023-07-28T00:34:18;41.69;40.62;42.87;;
71016;Laerm;60940;52.046;5.340;2023-07-28T00:34:28;41.73;40.32;43.06;;
71016;Laerm;60940;52.046;5.340;2023-07-28T00:34:38;41.82;40.89;42.84;;
71016;Laerm;60940;52.046;5.340;2023-07-28T00:34:48;41.78;40.34;42.78;;
71016;Laerm;60940;52.046;5.340;2023-07-28T00:34:59;41.74;40.61;43.40;;
71016;Laerm;60940;52.046;5.340;2023-07-28T00:35:09;41.71;40.52;42.77;;
71016;Laerm;60940;52.046;5.340;2023-07-28T00:35:19;41.71;40.73;42.94;;
71016;Laerm;60940;52.046;5.340;2023-07-28T00:35:29;41.78;40.70;42.87;;
71016;Laerm;60940;52.046;5.340;2023-07-28T00:35:39;41.79;40.92;42.81;;
71016;Laerm;60940;52.046;5.340;2023-07-28T00:35:49;41.82;40.57;42.92;;
71016;Laerm;60940;52.046;5.340;2023-07-28T00:36:00;41.84;40.85;42.96;;
71016;Laerm;60940;52.046;5.340;2023-07-28T00:36:10;41.81;40.49;42.99;;
71016;Laerm;60940;52.046;5.340;2023-07-28T00:36:20;41.85;40.87;42.74;;
71016;Laerm;60940;52.046;5.340;2023-07-28T00:36:31;41.94;40.38;43.07;;
71016;Laerm;60940;52.046;5.340;2023-07-28T00:36:41;41.79;40.65;43.05;;
71016;Laerm;60940;52.046;5.340;2023-07-28T00:36:51;41.72;40.84;43.15;;
71016;Laerm;60940;52.046;5.340;2023-07-28T00:37:01;41.72;40.69;42.65;;
71016;Laerm;60940;52.046;5.340;2023-07-28T00:37:12;41.67;40.42;42.83;;
71016;Laerm;60940;52.046;5.340;2023-07-28T00:37:22;41.80;40.74;42.85;;
71016;Laerm;60940;52.046;5.340;2023-07-28T00:37:32;41.72;40.72;42.93;;
71016;Laerm;60940;52.046;5.340;2023-07-28T00:37:42;41.72;40.82;42.77;;
71016;Laerm;60940;52.046;5.340;2023-07-28T00:37:52;41.60;40.59;42.57;;
71016;Laerm;60940;52.046;5.340;2023-07-28T00:38:03;41.66;40.56;42.64;;
71016;Laerm;60940;52.046;5.340;2023-07-28T00:38:13;41.71;40.82;42.95;;
71016;Laerm;60940;52.046;5.340;2023-07-28T00:38:23;41.73;40.56;42.73;;
71016;Laerm;60940;52.046;5.340;2023-07-28T00:38:33;41.76;40.66;42.78;;
71016;Laerm;60940;52.046;5.340;2023-07-28T00:38:44;41.79;40.54;44.65;;
71016;Laerm;60940;52.046;5.340;2023-07-28T00:38:54;41.75;40.76;42.66;;
71016;Laerm;60940;52.046;5.340;2023-07-28T00:39:04;41.67;40.52;43.08;;
71016;Laerm;60940;52.046;5.340;2023-07-28T00:39:14;41.73;40.52;42.88;;
71016;Laerm;60940;52.046;5.340;2023-07-28T00:39:24;41.76;40.50;42.81;;
71016;Laerm;60940;52.046;5.340;2023-07-28T00:39:35;41.80;40.76;42.87;;
71016;Laerm;60940;52.046;5.340;2023-07-28T00:39:45;41.76;40.65;42.76;;
71016;Laerm;60940;52.046;5.340;2023-07-28T00:39:55;41.89;40.71;43.06;;
71016;Laerm;60940;52.046;5.340;2023-07-28T00:40:05;41.81;40.68;43.06;;
71016;Laerm;60940;52.046;5.340;2023-07-28T00:40:16;41.75;40.38;42.79;;
71016;Laerm;60940;52.046;5.340;2023-07-28T00:40:29;41.88;40.70;43.02;;
71016;Laerm;60940;52.046;5.340;2023-07-28T00:40:39;41.83;40.79;43.03;;
71016;Laerm;60940;52.046;5.340;2023-07-28T00:40:49;41.59;40.51;42.51;;
71016;Laerm;60940;52.046;5.340;2023-07-28T00:40:59;41.55;40.55;42.56;;
71016;Laerm;60940;52.046;5.340;2023-07-28T00:41:10;41.72;40.24;42.90;;
71016;Laerm;60940;52.046;5.340;2023-07-28T00:41:20;41.75;40.68;42.85;;
71016;Laerm;60940;52.046;5.340;2023-07-28T00:41:33;41.74;40.48;43.03;;
71016;Laerm;60940;52.046;5.340;2023-07-28T00:41:43;41.73;40.58;42.63;;
71016;Laerm;60940;52.046;5.340;2023-07-28T00:41:53;41.70;40.75;42.54;;
71016;Laerm;60940;52.046;5.340;2023-07-28T00:42:04;41.64;40.63;42.50;;
71016;Laerm;60940;52.046;5.340;2023-07-28T00:42:14;41.73;40.71;42.88;;
71016;Laerm;60940;52.046;5.340;2023-07-28T00:42:24;41.71;40.55;42.73;;
71016;Laerm;60940;52.046;5.340;2023-07-28T00:42:34;41.78;40.66;42.77;;
71016;Laerm;60940;52.046;5.340;2023-07-28T00:42:45;41.90;40.56;42.98;;
71016;Laerm;60940;52.046;5.340;2023-07-28T00:42:55;41.88;40.82;42.81;;
71016;Laerm;60940;52.046;5.340;2023-07-28T00:43:05;41.83;40.90;42.84;;
71016;Laerm;60940;52.046;5.340;2023-07-28T00:43:15;41.82;40.56;42.97;;
71016;Laerm;60940;52.046;5.340;2023-07-28T00:43:25;41.83;40.87;43.20;;
71016;Laerm;60940;52.046;5.340;2023-07-28T00:43:36;41.67;40.61;42.58;;
71016;Laerm;60940;52.046;5.340;2023-07-28T00:43:46;41.66;40.49;42.68;;
71016;Laerm;60940;52.046;5.340;2023-07-28T00:43:56;41.67;40.49;42.83;;
71016;Laerm;60940;52.046;5.340;2023-07-28T00:44:06;41.70;40.56;42.72;;
71016;Laerm;60940;52.046;5.340;2023-07-28T00:44:16;41.74;40.30;42.75;;
71016;Laerm;60940;52.046;5.340;2023-07-28T00:44:27;41.70;40.54;42.86;;
71016;Laerm;60940;52.046;5.340;2023-07-28T00:44:37;41.67;40.55;42.91;;
71016;Laerm;60940;52.046;5.340;2023-07-28T00:44:47;41.68;40.52;42.70;;
71016;Laerm;60940;52.046;5.340;2023-07-28T00:44:57;41.73;40.37;42.69;;
71016;Laerm;60940;52.046;5.340;2023-07-28T00:45:08;41.73;40.83;42.70;;
71016;Laerm;60940;52.046;5.340;2023-07-28T00:45:18;41.65;40.35;42.73;;
71016;Laerm;60940;52.046;5.340;2023-07-28T00:45:29;41.80;40.66;42.69;;
71016;Laerm;60940;52.046;5.340;2023-07-28T00:45:40;41.76;40.58;43.21;;
71016;Laerm;60940;52.046;5.340;2023-07-28T00:45:50;41.77;40.41;42.81;;
71016;Laerm;60940;52.046;5.340;2023-07-28T00:46:00;41.62;40.42;42.75;;
71016;Laerm;60940;52.046;5.340;2023-07-28T00:46:10;41.60;40.49;42.59;;
71016;Laerm;60940;52.046;5.340;2023-07-28T00:46:21;41.57;40.27;42.82;;
71016;Laerm;60940;52.046;5.340;2023-07-28T00:46:31;41.62;40.51;42.59;;
71016;Laerm;60940;52.046;5.340;2023-07-28T00:46:41;41.62;40.62;42.83;;
71016;Laerm;60940;52.046;5.340;2023-07-28T00:46:52;41.61;40.51;42.71;;
71016;Laerm;60940;52.046;5.340;2023-07-28T00:47:02;41.76;40.44;42.84;;
71016;Laerm;60940;52.046;5.340;2023-07-28T00:47:13;41.73;40.47;42.77;;
71016;Laerm;60940;52.046;5.340;2023-07-28T00:47:23;41.67;40.63;42.61;;
71016;Laerm;60940;52.046;5.340;2023-07-28T00:47:34;41.62;40.40;42.77;;
71016;Laerm;60940;52.046;5.340;2023-07-28T00:47:46;41.58;40.41;43.04;;
71016;Laerm;60940;52.046;5.340;2023-07-28T00:47:56;41.65;40.56;42.56;;
71016;Laerm;60940;52.046;5.340;2023-07-28T00:48:11;41.61;40.28;42.47;;
71016;Laerm;60940;52.046;5.340;2023-07-28T00:48:22;41.54;40.26;42.60;;
71016;Laerm;60940;52.046;5.340;2023-07-28T00:48:33;41.61;40.58;42.55;;
71016;Laerm;60940;52.046;5.340;2023-07-28T00:48:43;41.62;40.41;42.55;;
71016;Laerm;60940;52.046;5.340;2023-07-28T00:48:54;41.60;40.46;42.76;;
71016;Laerm;60940;52.046;5.340;2023-07-28T00:49:04;41.56;40.28;42.54;;
71016;Laerm;60940;52.046;5.340;2023-07-28T00:49:15;41.56;40.42;42.54;;
71016;Laerm;60940;52.046;5.340;2023-07-28T00:49:25;41.57;40.46;42.62;;
71016;Laerm;60940;52.046;5.340;2023-07-28T00:49:35;41.60;40.42;42.72;;
71016;Laerm;60940;52.046;5.340;2023-07-28T00:49:46;41.51;40.44;42.68;;
71016;Laerm;60940;52.046;5.340;2023-07-28T00:49:56;41.57;40.42;42.63;;
71016;Laerm;60940;52.046;5.340;2023-07-28T00:50:06;41.59;40.63;42.45;;
71016;Laerm;60940;52.046;5.340;2023-07-28T00:50:18;41.55;40.21;42.82;;
71016;Laerm;60940;52.046;5.340;2023-07-28T00:50:28;41.60;40.42;42.97;;
71016;Laerm;60940;52.046;5.340;2023-07-28T00:50:40;41.57;40.49;42.65;;
71016;Laerm;60940;52.046;5.340;2023-07-28T00:50:50;41.54;40.32;42.71;;
71016;Laerm;60940;52.046;5.340;2023-07-28T00:51:01;41.59;40.60;42.67;;
71016;Laerm;60940;52.046;5.340;2023-07-28T00:51:11;41.59;40.69;42.40;;
71016;Laerm;60940;52.046;5.340;2023-07-28T00:51:21;41.68;40.66;42.77;;
71016;Laerm;60940;52.046;5.340;2023-07-28T00:51:32;41.65;40.77;43.10;;
71016;Laerm;60940;52.046;5.340;2023-07-28T00:51:42;41.72;40.54;42.91;;
71016;Laerm;60940;52.046;5.340;2023-07-28T00:51:52;41.66;39.82;42.65;;
71016;Laerm;60940;52.046;5.340;2023-07-28T00:52:03;41.55;40.52;42.62;;
71016;Laerm;60940;52.046;5.340;2023-07-28T00:52:13;41.60;40.07;42.65;;
71016;Laerm;60940;52.046;5.340;2023-07-28T00:52:24;41.61;40.09;42.73;;
71016;Laerm;60940;52.046;5.340;2023-07-28T00:52:34;41.56;40.60;42.86;;
71016;Laerm;60940;52.046;5.340;2023-07-28T00:52:44;41.59;40.54;42.56;;
71016;Laerm;60940;52.046;5.340;2023-07-28T00:52:56;41.65;40.43;42.73;;
71016;Laerm;60940;52.046;5.340;2023-07-28T00:53:06;41.63;40.47;42.93;;
71016;Laerm;60940;52.046;5.340;2023-07-28T00:53:17;41.62;40.35;42.66;;
71016;Laerm;60940;52.046;5.340;2023-07-28T00:53:27;41.56;40.47;42.99;;
71016;Laerm;60940;52.046;5.340;2023-07-28T00:53:38;41.53;40.06;42.66;;
71016;Laerm;60940;52.046;5.340;2023-07-28T00:53:49;41.45;40.21;42.46;;
71016;Laerm;60940;52.046;5.340;2023-07-28T00:54:00;41.53;40.62;42.65;;
71016;Laerm;60940;52.046;5.340;2023-07-28T00:54:11;41.70;40.62;42.60;;
71016;Laerm;60940;52.046;5.340;2023-07-28T00:54:22;41.63;40.59;42.57;;
71016;Laerm;60940;52.046;5.340;2023-07-28T00:54:32;41.53;40.43;42.51;;
71016;Laerm;60940;52.046;5.340;2023-07-28T00:54:42;41.51;40.53;42.43;;
71016;Laerm;60940;52.046;5.340;2023-07-28T00:54:52;41.44;40.58;42.51;;
71016;Laerm;60940;52.046;5.340;2023-07-28T00:55:03;41.44;40.26;43.46;;
71016;Laerm;60940;52.046;5.340;2023-07-28T00:55:13;41.55;40.38;42.72;;
71016;Laerm;60940;52.046;5.340;2023-07-28T00:55:23;41.55;40.33;42.57;;
71016;Laerm;60940;52.046;5.340;2023-07-28T00:55:33;41.61;40.12;42.62;;
71016;Laerm;60940;52.046;5.340;2023-07-28T00:55:44;41.72;40.50;42.83;;
71016;Laerm;60940;52.046;5.340;2023-07-28T00:55:54;41.66;40.42;43.05;;
71016;Laerm;60940;52.046;5.340;2023-07-28T00:56:05;41.68;40.47;45.36;;
71016;Laerm;60940;52.046;5.340;2023-07-28T00:56:15;41.51;40.57;42.44;;
71016;Laerm;60940;52.046;5.340;2023-07-28T00:56:26;41.50;40.54;42.61;;
71016;Laerm;60940;52.046;5.340;2023-07-28T00:56:36;41.52;40.25;42.55;;
71016;Laerm;60940;52.046;5.340;2023-07-28T00:56:46;41.52;40.61;42.53;;
71016;Laerm;60940;52.046;5.340;2023-07-28T00:56:57;41.55;40.26;42.62;;
71016;Laerm;60940;52.046;5.340;2023-07-28T00:57:07;41.54;40.53;42.44;;
71016;Laerm;60940;52.046;5.340;2023-07-28T00:57:17;41.60;40.49;42.77;;
71016;Laerm;60940;52.046;5.340;2023-07-28T00:57:28;41.59;40.51;42.70;;
71016;Laerm;60940;52.046;5.340;2023-07-28T00:57:38;41.58;40.26;42.62;;
71016;Laerm;60940;52.046;5.340;2023-07-28T00:57:49;41.57;40.44;42.80;;
71016;Laerm;60940;52.046;5.340;2023-07-28T00:58:00;41.54;40.49;42.96;;